Date,TemperatureHighF,TemperatureAvgF,TemperatureLowF,DewpointHighF,DewpointAvgF,DewpointLowF,HumidityHigh,HumidityAvg,HumidityLow,PressureMaxIn,PressureMinIn,WindSpeedMaxMPH,WindSpeedAvgMPH,GustSpeedMaxMPH,PrecipitationSumIn
2013-1-1,40.0,34.6,29.9,35.2,31.4,28.0,94,88,79,30.47,30.33,7,1,9,0.00
2013-1-2,43.9,36.9,32.9,35.4,30.2,24.1,93,77,60,30.33,30.16,4,0,7,0.00
2013-1-3,43.0,36.3,31.1,35.5,29.2,22.0,95,76,58,30.17,30.06,7,1,10,0.29
2013-1-4,48.6,43.7,36.9,44.3,41.1,35.6,96,91,83,30.27,30.13,7,1,10,0.01
2013-1-5,45.1,43.1,41.7,40.3,37.3,35.0,93,80,72,30.17,30.08,8,1,11,0.09
2013-1-6,44.8,42.8,40.3,40.7,39.3,38.0,92,88,80,30.15,29.95,9,1,13,0.00
2013-1-7,50.1,46.4,41.0,47.1,43.4,38.9,94,89,83,30.12,29.75,12,2,19,0.04
2013-1-8,51.4,46.6,41.8,49.0,44.3,39.6,97,92,85,30.12,29.69,18,2,20,0.53
2013-1-9,49.4,41.2,37.0,48.0,39.1,34.7,96,92,85,29.91,29.63,8,2,16,0.82
2013-1-10,38.3,36.2,34.2,35.4,33.3,27.5,93,89,76,30.09,29.91,5,1,8,0.03
2013-1-11,35.4,32.2,29.2,29.8,27.0,23.5,95,81,69,30.30,30.08,6,2,9,0.00
2013-1-12,35.6,30.2,27.0,28.4,26.4,24.7,95,86,70,30.41,30.29,7,1,10,0.00
2013-1-13,35.8,30.9,26.2,29.6,27.3,24.9,95,87,71,30.47,30.41,3,1,5,0.00
2013-1-14,37.7,34.8,32.4,33.2,30.2,27.2,89,83,74,30.54,30.44,2,0,4,0.01
2013-1-15,42.0,37.0,33.0,35.5,32.2,30.1,90,83,70,30.67,30.53,7,1,11,0.00
2013-1-16,41.2,34.8,29.6,35.0,31.5,28.6,97,88,76,30.65,30.49,7,1,12,0.00
2013-1-17,38.0,34.4,29.6,36.0,32.8,28.3,97,94,90,30.49,30.26,5,1,7,0.00
2013-1-18,37.5,34.6,32.3,36.7,33.6,31.2,97,96,94,30.32,30.23,5,1,7,0.00
2013-1-19,36.0,34.1,32.2,34.9,32.9,31.4,97,96,92,30.36,30.31,4,1,6,0.00
2013-1-20,40.4,36.0,32.4,37.4,34.6,31.6,97,95,86,30.36,30.24,7,2,11,0.00
2013-1-21,37.4,34.5,31.8,35.7,33.2,31.0,97,95,90,30.24,30.11,5,1,7,0.00
2013-1-22,39.7,35.6,31.7,36.6,33.8,30.6,97,93,88,30.11,29.88,4,1,5,0.00
2013-1-23,42.5,41.0,38.9,40.7,37.8,34.3,95,89,77,30.10,29.81,7,1,11,0.25
2013-1-24,44.6,42.0,40.3,41.1,39.0,36.8,95,90,76,30.17,30.02,6,1,12,0.13
2013-1-25,50.4,45.6,42.4,45.3,42.5,38.5,97,89,77,30.03,29.89,6,1,9,0.04
2013-1-26,44.1,42.1,40.3,40.9,39.2,37.6,95,89,85,30.00,29.84,10,2,17,0.21
2013-1-27,42.1,40.8,39.8,39.1,37.9,36.6,93,90,87,30.02,29.95,10,2,13,0.02
2013-1-28,41.9,40.7,38.9,40.5,38.9,37.0,95,93,91,30.05,29.97,5,0,8,0.25
2013-1-29,47.0,44.6,41.8,45.3,43.0,40.4,96,94,91,30.30,30.06,9,1,14,0.30
2013-1-30,47.7,46.3,44.1,46.8,45.4,43.0,97,97,96,30.35,30.29,4,0,7,0.16
2013-1-31,49.0,46.7,45.4,45.6,44.9,44.1,97,94,86,30.36,30.26,6,1,10,0.08
2013-2-1,49.4,45.3,41.5,45.3,43.4,40.0,96,93,85,30.38,30.30,7,2,13,0.00
2013-2-2,43.0,40.9,38.8,41.3,39.2,37.4,97,94,90,30.35,30.22,7,1,12,0.00
2013-2-3,47.9,43.6,39.4,43.4,41.5,38.3,97,92,84,30.27,30.17,3,0,8,0.07
2013-2-4,49.9,46.1,44.1,43.7,42.2,41.2,93,86,76,30.18,29.85,6,1,11,0.00
2013-2-5,50.3,45.9,43.7,43.8,42.1,40.7,93,87,75,29.89,29.80,8,2,17,0.07
2013-2-6,49.8,45.2,43.3,43.2,41.0,39.3,92,86,72,30.01,29.75,9,1,16,0.10
2013-2-7,48.5,43.4,39.1,41.4,38.0,36.1,91,81,64,30.15,29.76,12,2,21,0.07
2013-2-8,44.4,41.3,37.4,39.0,37.3,35.8,95,86,74,30.27,30.15,6,1,10,0.00
2013-2-9,45.0,42.0,40.2,40.6,38.8,36.8,95,89,74,30.31,30.23,3,0,5,0.00
2013-2-10,44.8,40.8,35.0,40.3,38.0,33.9,97,90,75,30.35,30.29,5,1,8,0.00
2013-2-11,47.0,43.5,40.8,42.0,39.9,38.0,93,87,75,30.33,30.29,5,0,6,0.01
2013-2-12,49.2,46.2,43.9,45.6,43.9,41.5,96,92,85,30.37,30.24,10,1,19,0.02
2013-2-13,47.9,45.6,44.1,45.0,42.3,40.6,93,89,81,30.47,30.27,7,1,12,0.01
2013-2-14,47.3,45.1,43.0,44.5,42.6,40.3,94,91,86,30.53,30.45,5,0,7,0.05
2013-2-15,52.0,45.3,41.6,45.1,42.5,40.2,96,90,76,30.52,30.14,8,2,10,0.00
2013-2-16,52.9,45.1,41.0,43.8,41.7,37.3,96,88,67,30.16,30.07,8,2,17,0.04
2013-2-17,46.0,41.6,40.1,39.5,37.3,35.9,92,85,71,30.21,30.08,4,0,7,0.01
2013-2-18,46.5,42.2,39.1,38.7,37.4,35.8,93,83,72,30.08,29.73,4,0,9,0.00
2013-2-19,48.0,42.5,38.3,39.0,36.9,34.6,92,81,61,29.98,29.71,13,2,16,0.00
2013-2-20,44.3,40.3,37.5,39.4,37.4,34.6,94,90,79,30.01,29.96,3,0,7,0.11
2013-2-21,43.6,42.0,39.9,40.5,38.9,37.6,95,89,83,30.03,29.97,10,2,15,0.06
2013-2-22,46.6,42.2,37.9,42.4,38.5,33.9,92,87,78,30.01,29.64,16,3,22,0.07
2013-2-23,49.4,42.7,38.5,38.9,36.6,34.2,89,80,62,30.34,29.86,9,1,11,0.00
2013-2-24,47.1,44.2,40.4,38.4,36.8,34.7,86,75,64,30.34,29.91,9,1,13,0.00
2013-2-25,53.3,44.0,39.1,39.6,36.4,30.6,91,76,45,30.27,29.84,18,4,20,0.07
2013-2-26,46.9,42.8,38.0,37.2,35.2,32.7,88,75,59,30.32,30.16,5,1,12,0.01
2013-2-27,47.0,43.6,40.7,42.8,40.3,36.8,94,88,77,30.27,30.17,5,1,10,0.18
2013-2-28,51.7,46.8,42.3,49.7,45.2,40.9,96,94,92,30.29,30.16,7,1,12,0.23
2013-3-1,55.9,52.1,49.5,50.8,49.3,48.0,97,91,82,30.32,30.24,9,2,13,0.11
2013-3-2,56.0,49.3,38.4,49.1,44.7,36.5,93,85,74,30.24,30.04,9,2,16,0.15
2013-3-3,48.8,40.9,36.1,38.0,35.5,32.7,94,82,58,30.28,30.17,9,1,12,0.01
2013-3-4,50.3,41.2,31.9,37.9,32.5,27.3,91,73,48,30.27,29.89,7,1,10,0.00
2013-3-5,48.9,44.1,41.0,40.3,36.2,26.7,91,74,53,29.89,29.70,5,1,9,0.00
2013-3-6,43.3,41.9,40.5,40.7,39.7,38.4,95,92,87,29.86,29.55,11,3,18,0.56
2013-3-7,50.4,44.7,40.9,44.0,41.0,39.2,96,87,68,30.06,29.86,6,0,10,0.18
2013-3-8,50.5,43.2,37.1,40.8,38.5,35.7,95,84,66,30.21,30.05,11,2,14,0.00
2013-3-9,54.5,43.1,34.7,42.3,37.8,33.6,97,83,56,30.46,30.21,5,1,8,0.00
2013-3-10,47.5,43.3,39.6,41.7,39.5,36.6,92,87,71,30.46,30.40,3,0,6,0.01
2013-3-11,50.6,46.1,41.8,45.9,42.3,40.2,95,87,71,30.42,30.13,4,0,8,0.02
2013-3-12,54.1,50.8,47.9,50.0,47.9,45.9,96,90,77,30.13,30.03,10,2,14,0.05
2013-3-13,51.5,50.5,49.3,49.5,48.2,47.1,94,92,90,30.17,30.06,6,1,10,0.07
2013-3-14,52.5,50.2,48.1,48.4,46.3,44.6,95,87,75,30.11,29.99,12,1,13,0.00
2013-3-15,58.2,51.3,48.0,50.3,47.6,45.0,95,87,74,30.18,30.10,6,1,10,0.00
2013-3-16,50.9,46.4,39.0,45.2,41.5,35.2,91,83,67,30.10,29.84,12,2,24,0.01
2013-3-17,49.4,41.6,38.1,37.5,35.6,33.1,89,80,60,30.16,29.94,7,1,14,0.02
2013-3-18,53.7,43.9,39.5,40.2,36.5,33.1,91,76,50,30.21,30.07,16,2,21,0.01
2013-3-19,52.8,42.2,36.3,42.4,36.5,32.4,95,81,51,30.20,29.56,6,1,15,0.42
2013-3-20,50.6,46.3,39.1,48.4,41.5,32.7,95,84,67,29.98,29.34,17,4,29,0.52
2013-3-21,46.4,40.2,35.7,37.5,34.7,33.0,92,81,64,30.19,29.98,8,2,14,0.02
2013-3-22,46.3,39.0,34.9,34.9,32.1,28.2,93,78,53,30.35,30.18,7,1,9,0.03
2013-3-23,50.9,41.0,34.4,34.0,30.4,25.7,89,68,40,30.37,30.27,5,1,7,0.00
2013-3-24,53.0,42.1,33.4,36.0,32.3,29.8,89,70,41,30.27,30.09,5,1,7,0.00
2013-3-25,59.1,48.1,38.0,38.3,31.4,27.3,70,54,33,30.10,29.91,8,2,10,0.00
2013-3-26,59.0,50.1,45.0,41.5,39.2,35.6,82,67,46,29.99,29.93,6,1,8,0.00
2013-3-27,54.8,48.8,45.5,47.3,42.7,37.2,91,80,63,29.96,29.91,6,1,8,0.03
2013-3-28,61.9,51.3,45.1,49.2,45.7,43.3,95,83,56,30.11,29.96,4,1,7,0.05
2013-3-29,62.9,52.2,45.6,47.4,44.9,43.4,93,78,52,30.22,30.11,7,2,10,0.00
2013-3-30,60.6,51.3,43.3,47.8,44.5,41.4,96,79,58,30.23,30.04,9,3,16,0.00
2013-3-31,65.4,55.3,45.7,47.1,42.9,40.7,84,64,46,30.05,29.88,9,2,13,0.00
2013-4-1,62.0,52.3,46.7,49.4,46.4,43.4,92,81,62,30.13,29.93,9,1,10,0.00
2013-4-2,57.6,51.4,48.2,47.6,45.3,43.5,86,80,69,30.17,30.12,3,0,8,0.00
2013-4-3,60.8,51.7,45.6,47.1,44.9,43.2,94,79,56,30.17,29.92,6,1,9,0.00
2013-4-4,55.1,51.0,48.4,52.5,48.0,43.8,96,90,79,29.92,29.61,7,1,11,0.39
2013-4-5,54.9,51.3,47.8,50.3,48.1,45.6,96,89,79,29.83,29.69,13,2,21,0.71
2013-4-6,51.9,47.6,44.7,47.1,44.1,41.4,95,88,79,29.89,29.66,12,2,18,0.44
2013-4-7,46.1,43.4,40.0,43.9,41.2,38.0,95,92,87,29.86,29.48,10,2,13,0.77
2013-4-8,55.9,47.5,42.2,46.0,42.9,40.4,95,85,64,30.24,29.86,5,1,8,0.00
2013-4-9,53.7,49.1,44.1,43.1,41.7,40.5,89,77,63,30.32,30.15,5,0,11,0.00
2013-4-10,58.7,51.8,47.9,51.1,45.6,41.9,95,80,62,30.22,29.90,9,2,14,0.05
2013-4-11,53.2,47.3,43.9,43.7,39.9,35.2,94,77,52,30.27,30.17,10,2,13,0.00
2013-4-12,45.4,43.4,40.8,43.4,39.2,37.1,95,85,74,30.16,29.64,7,1,18,0.03
2013-4-13,49.1,42.3,37.7,42.9,38.5,34.0,94,87,73,29.98,29.72,10,1,14,0.02
2013-4-14,53.2,44.8,38.5,42.0,37.6,31.4,95,78,44,29.98,29.89,6,1,10,0.00
2013-4-15,54.6,45.8,39.7,41.3,39.0,36.5,94,78,51,30.15,29.92,12,2,17,0.00
2013-4-16,57.6,46.9,38.7,42.4,38.0,31.6,95,73,44,30.37,30.15,9,2,13,0.00
2013-4-17,58.8,48.5,39.8,42.7,38.7,35.0,86,70,45,30.42,30.36,7,1,12,0.00
2013-4-18,50.8,47.1,43.4,46.9,42.4,38.1,93,84,74,30.42,30.17,6,1,10,0.01
2013-4-19,53.2,50.2,47.4,51.7,48.3,46.0,95,93,89,30.17,30.03,11,1,13,0.00
2013-4-20,56.5,49.3,46.1,48.9,45.8,43.5,95,88,70,30.25,30.16,5,1,10,0.00
2013-4-21,54.6,46.9,44.0,44.4,41.7,37.2,94,83,63,30.34,30.20,12,2,15,0.00
2013-4-22,58.0,49.0,40.6,41.5,34.7,23.2,91,62,27,30.50,30.34,13,4,18,0.00
2013-4-23,61.9,50.2,39.7,39.8,34.8,25.9,88,58,27,30.40,30.22,13,2,18,0.00
2013-4-24,68.2,55.2,41.9,43.3,38.0,32.4,87,56,27,30.29,30.03,7,2,11,0.00
2013-4-25,72.4,57.8,45.4,47.2,39.8,33.8,85,54,30,30.11,30.01,7,1,7,0.00
2013-4-26,67.0,54.6,46.5,50.5,46.5,41.9,94,76,53,30.23,30.11,7,1,10,0.00
2013-4-27,56.1,53.0,50.6,47.5,44.9,40.2,87,74,61,30.18,30.12,11,1,14,0.01
2013-4-28,58.7,51.0,47.0,48.2,44.6,40.4,90,80,59,30.19,29.91,13,2,17,0.00
2013-4-29,57.4,48.6,43.3,46.1,39.6,32.4,94,73,43,30.13,29.88,12,2,15,0.12
2013-4-30,54.7,46.3,38.7,38.6,34.8,31.1,87,66,45,30.41,30.13,7,1,11,0.00
2013-5-1,61.4,49.7,38.4,40.2,35.6,28.7,90,62,29,30.55,30.42,9,2,13,0.00
2013-5-2,63.0,53.8,44.7,44.2,40.3,36.0,79,61,43,30.52,30.34,12,3,17,0.00
2013-5-3,66.7,57.1,48.0,48.6,45.0,38.6,80,65,48,30.36,30.19,10,3,17,0.00
2013-5-4,72.6,62.3,52.0,49.7,44.8,39.5,76,55,34,30.20,29.96,18,4,22,0.00
2013-5-5,78.2,65.8,52.2,50.6,45.3,39.2,80,50,26,29.96,29.74,9,2,16,0.00
2013-5-6,83.1,67.4,53.3,50.1,47.5,43.4,85,52,27,29.82,29.72,9,1,14,0.00
2013-5-7,71.2,58.7,51.0,55.4,50.7,48.0,90,76,55,29.97,29.79,7,1,12,0.00
2013-5-8,65.8,55.9,51.0,52.7,49.5,47.4,88,80,62,30.12,29.97,6,1,7,0.00
2013-5-9,68.4,55.5,49.0,54.6,49.8,47.2,95,82,50,30.20,30.09,6,1,9,0.00
2013-5-10,75.1,59.9,48.8,55.5,50.3,47.1,94,73,41,30.17,30.08,5,2,7,0.00
2013-5-11,80.6,63.0,52.3,54.6,49.7,44.2,85,64,37,30.14,29.95,5,1,8,0.00
2013-5-12,70.3,61.5,57.7,57.4,54.9,52.2,91,80,61,30.06,29.98,8,1,11,0.06
2013-5-13,62.7,55.9,48.7,55.4,50.2,41.6,92,81,60,30.15,29.90,15,2,23,0.43
2013-5-14,65.3,54.7,47.9,45.4,42.9,38.2,86,66,40,30.19,30.08,7,1,8,0.00
2013-5-15,63.1,53.7,47.2,50.9,46.5,40.4,92,78,45,30.09,29.98,6,1,12,0.04
2013-5-16,67.8,58.8,52.7,53.6,50.9,48.1,92,77,51,29.98,29.84,8,2,14,0.00
2013-5-17,64.4,56.6,52.3,50.7,48.7,45.4,89,76,55,30.03,29.91,6,1,10,0.02
2013-5-18,60.8,55.4,50.8,48.4,46.8,45.1,87,73,58,30.24,30.03,7,1,10,0.00
2013-5-19,63.1,56.3,51.6,51.1,48.4,46.5,86,75,57,30.37,30.24,7,2,10,0.00
2013-5-20,67.8,54.6,47.0,50.5,47.3,44.4,93,78,50,30.32,29.87,12,1,15,0.00
2013-5-21,57.1,49.4,45.4,49.1,45.6,43.5,94,87,68,29.88,29.75,10,1,14,0.46
2013-5-22,55.3,48.3,45.3,48.0,44.7,43.1,94,88,74,29.90,29.82,7,1,10,0.00
2013-5-23,55.3,49.0,44.6,48.4,44.4,42.1,94,85,65,29.98,29.90,6,1,12,0.00
2013-5-24,64.9,53.5,46.6,48.7,46.1,43.9,93,77,51,30.02,29.94,6,1,10,0.00
2013-5-25,64.1,55.0,49.9,49.3,46.8,44.7,88,75,50,30.01,29.94,5,1,10,0.00
2013-5-26,63.4,54.6,49.3,53.8,49.9,46.7,94,85,66,29.96,29.91,5,1,10,0.00
2013-5-27,58.1,55.0,51.5,55.7,51.9,48.5,94,89,84,29.94,29.68,7,1,13,0.11
2013-5-28,62.4,55.1,51.5,54.0,49.3,46.7,91,81,69,29.85,29.74,7,1,12,0.03
2013-5-29,60.9,53.2,48.8,51.1,48.4,46.6,94,84,68,29.93,29.66,6,1,10,0.16
2013-5-30,62.2,54.3,49.2,49.8,46.8,45.1,87,76,61,30.21,29.94,9,1,14,0.00
2013-5-31,66.8,56.9,50.2,49.6,46.5,40.3,89,70,39,30.31,30.21,7,2,8,0.00
2013-6-1,70.9,58.9,51.4,50.2,47.4,45.2,85,67,42,30.22,30.03,10,2,15,0.00
2013-6-2,70.4,60.6,52.9,53.4,49.6,45.8,87,68,51,30.06,30.01,10,2,13,0.01
2013-6-3,73.0,59.0,51.0,54.8,51.0,48.6,93,76,51,30.10,30.03,9,2,11,0.00
2013-6-4,75.0,63.2,51.4,54.6,50.7,45.6,91,66,43,30.10,29.99,9,2,12,0.00
2013-6-5,74.2,63.5,54.1,58.6,52.9,46.7,87,69,54,30.06,30.00,9,2,14,0.00
2013-6-6,77.4,64.3,52.6,53.9,50.2,42.5,92,63,34,30.03,29.97,7,2,11,0.00
2013-6-7,67.0,60.1,55.0,55.6,49.8,44.6,81,69,52,30.12,29.99,5,1,8,0.00
2013-6-8,66.8,58.7,53.4,51.1,48.6,46.3,79,70,56,30.16,30.07,10,2,12,0.00
2013-6-9,65.7,57.0,51.8,51.0,47.4,44.7,84,71,53,30.09,29.99,8,2,16,0.00
2013-6-10,69.5,58.1,48.5,50.4,47.0,43.9,85,68,47,30.01,29.85,7,1,10,0.00
2013-6-11,65.7,56.4,51.7,55.6,47.4,45.1,86,73,53,30.07,29.91,10,1,15,0.07
2013-6-12,68.2,58.0,51.6,49.8,47.7,45.3,85,70,47,30.11,30.07,9,2,14,0.00
2013-6-13,67.5,58.3,52.2,51.4,49.1,46.0,87,73,50,30.19,30.11,7,1,10,0.00
2013-6-14,66.9,58.5,53.8,50.6,48.7,46.7,85,71,53,30.20,30.03,6,1,9,0.00
2013-6-15,70.8,60.9,51.4,53.9,50.8,48.1,92,71,45,30.03,29.89,10,3,13,0.00
2013-6-16,73.8,62.3,54.3,57.3,53.1,50.1,90,73,55,30.05,29.96,5,1,10,0.00
2013-6-17,76.4,63.6,55.8,54.6,51.7,47.9,85,68,38,30.06,29.86,11,2,17,0.01
2013-6-18,73.2,62.6,54.8,53.5,49.6,41.7,90,66,35,29.94,29.84,9,1,13,0.00
2013-6-19,65.9,59.2,54.0,53.6,50.6,48.8,87,74,58,29.97,29.88,6,1,8,0.00
2013-6-20,60.6,56.1,52.9,54.1,51.4,49.0,94,85,73,30.07,29.92,6,1,11,0.23
2013-6-21,69.1,59.1,52.6,54.3,51.3,47.8,95,77,51,30.13,30.07,6,1,8,0.04
2013-6-22,77.3,64.2,52.6,55.8,51.9,48.5,93,68,39,30.09,29.82,7,1,8,0.00
2013-6-23,69.0,62.9,57.6,60.1,55.7,51.4,94,78,67,29.82,29.56,4,1,6,0.17
2013-6-24,67.7,60.9,55.3,58.3,55.2,53.0,95,83,63,29.66,29.54,7,1,17,0.11
2013-6-25,74.0,61.5,56.1,58.5,55.7,52.9,95,83,50,29.82,29.64,7,1,21,0.40
2013-6-26,70.8,62.4,57.6,60.6,57.1,54.8,94,84,67,30.04,29.81,7,1,15,0.00
2013-6-27,68.3,63.6,58.6,62.7,59.6,54.9,95,87,78,30.16,30.01,6,0,7,0.11
2013-6-28,86.1,69.5,57.9,65.6,60.5,56.2,95,75,44,30.16,30.01,6,1,9,0.00
2013-6-29,81.8,70.5,61.3,65.4,60.5,57.0,91,72,53,30.07,29.96,6,1,7,0.00
2013-6-30,87.5,72.2,58.7,65.6,59.8,54.0,86,67,46,29.98,29.81,11,2,11,0.00
2013-7-1,83.6,72.2,62.2,65.5,60.3,57.1,87,68,51,29.98,29.87,6,1,10,0.00
2013-7-2,81.2,67.9,58.6,61.4,56.2,51.2,91,68,39,30.08,29.98,10,2,14,0.00
2013-7-3,74.7,65.7,59.4,55.1,51.2,47.1,72,60,43,30.12,30.01,9,2,11,0.00
2013-7-4,71.7,62.4,57.1,55.3,52.8,50.0,86,72,53,30.09,29.99,6,1,9,0.00
2013-7-5,73.6,64.0,55.0,57.5,54.5,51.7,92,72,55,30.00,29.92,7,1,10,0.00
2013-7-6,76.6,63.7,55.4,56.9,54.3,50.0,93,74,40,29.95,29.83,12,2,13,0.00
2013-7-7,75.9,64.1,55.7,60.9,56.7,53.1,94,78,58,29.92,29.84,7,1,9,0.00
2013-7-8,77.5,63.1,55.4,59.6,54.9,52.1,89,76,51,30.06,29.91,6,1,10,0.00
2013-7-9,79.1,66.8,55.5,59.4,55.5,51.8,94,70,44,30.08,29.95,9,2,13,0.00
2013-7-10,70.5,61.6,55.8,56.9,53.4,49.9,90,75,61,30.04,29.92,6,1,9,0.00
2013-7-11,69.5,59.9,54.8,51.5,49.1,47.3,81,68,49,30.05,29.96,11,2,12,0.00
2013-7-12,64.5,58.4,52.9,53.9,49.9,46.8,82,74,62,30.07,29.98,5,0,7,0.00
2013-7-13,74.0,62.6,51.4,52.3,48.9,46.3,85,63,39,30.17,30.07,10,2,13,0.00
2013-7-14,79.5,64.8,53.0,52.9,49.1,45.0,91,60,32,30.10,29.96,9,2,16,0.00
2013-7-15,76.8,66.5,55.8,54.6,49.5,44.2,80,57,35,30.01,29.86,13,3,19,0.00
2013-7-16,80.6,70.9,60.5,54.6,50.4,45.9,69,49,37,29.87,29.76,11,2,15,0.00
2013-7-17,71.8,65.1,59.5,56.9,55.3,51.3,84,71,54,30.15,29.84,8,1,9,0.01
2013-7-18,75.4,64.6,57.7,58.8,55.2,53.2,86,73,53,30.19,30.09,7,2,10,0.00
2013-7-19,76.7,64.1,55.6,60.4,56.1,52.6,91,76,55,30.14,30.01,9,2,9,0.00
2013-7-20,73.0,60.7,54.8,60.0,55.4,52.8,95,84,63,30.06,29.93,5,1,8,0.00
2013-7-21,75.9,62.3,54.4,60.9,56.0,52.8,95,81,59,29.95,29.87,7,1,8,0.00
2013-7-22,77.7,63.8,55.3,59.9,56.2,53.6,95,78,51,30.03,29.91,7,1,7,0.00
2013-7-23,80.6,64.3,54.2,60.1,54.0,47.7,95,73,33,30.04,29.94,10,2,13,0.00
2013-7-24,82.0,67.2,55.0,56.9,53.4,44.1,92,65,28,30.02,29.96,8,2,10,0.00
2013-7-25,81.3,66.0,52.8,57.0,53.8,50.8,94,68,40,30.07,29.99,7,2,9,0.00
2013-7-26,81.5,67.1,54.6,56.3,52.1,44.9,90,62,30,30.12,30.03,9,2,15,0.00
2013-7-27,77.2,63.8,54.3,54.5,51.6,47.4,89,67,37,30.13,29.96,6,1,9,0.00
2013-7-28,68.2,59.4,53.2,55.8,52.6,50.6,91,79,63,30.00,29.92,6,1,10,0.00
2013-7-29,75.8,63.0,54.8,56.5,53.4,50.6,87,72,50,29.98,29.91,5,1,9,0.00
2013-7-30,76.4,63.0,54.9,59.2,54.9,52.1,91,76,52,30.10,29.97,7,1,9,0.00
2013-7-31,70.8,60.9,55.0,60.3,56.1,53.2,96,85,67,30.09,29.95,7,1,8,0.00
2013-8-1,69.3,60.8,54.9,57.0,54.5,52.3,92,81,64,30.03,29.99,5,1,9,0.00
2013-8-2,60.7,59.5,58.2,58.0,56.0,54.0,93,88,82,30.10,30.02,4,0,7,0.07
2013-8-3,72.8,63.5,57.7,60.3,57.1,55.4,95,81,60,30.10,30.02,7,2,10,0.00
2013-8-4,77.7,65.7,55.1,60.6,57.1,53.5,95,76,53,30.03,29.91,10,2,14,0.00
2013-8-5,81.9,67.2,56.5,60.9,57.4,54.3,93,73,47,29.98,29.89,5,1,9,0.00
2013-8-6,82.9,65.9,54.0,59.6,54.6,51.3,93,70,36,29.98,29.88,6,1,7,0.00
2013-8-7,82.6,66.5,54.7,59.0,55.4,52.0,94,71,36,29.98,29.91,6,1,9,0.00
2013-8-8,79.3,65.1,56.7,60.5,56.5,54.2,93,76,51,30.00,29.90,6,1,9,0.00
2013-8-9,80.3,66.4,55.4,59.7,56.3,53.5,94,72,45,29.92,29.80,7,1,9,0.00
2013-8-10,76.2,64.5,57.5,63.5,59.0,55.7,94,83,64,29.98,29.86,7,1,9,0.15
2013-8-11,74.3,63.4,56.6,58.5,55.0,53.1,89,75,53,30.03,29.95,7,1,10,0.00
2013-8-12,77.0,64.4,57.4,58.6,55.5,53.9,89,74,47,30.04,29.96,7,1,10,0.00
2013-8-13,79.4,65.9,56.8,58.3,55.3,52.9,90,71,41,30.07,29.89,8,1,9,0.00
2013-8-14,78.5,65.0,56.6,61.4,56.8,52.8,89,76,48,29.92,29.87,6,0,13,0.02
2013-8-15,69.3,64.2,60.5,64.3,61.4,58.9,95,91,83,29.95,29.88,4,0,5,0.03
2013-8-16,83.0,68.2,59.6,63.8,59.0,49.2,97,76,32,29.97,29.90,7,1,9,0.00
2013-8-17,76.8,67.1,62.0,61.7,57.7,54.6,82,72,57,30.04,29.97,8,1,9,0.00
2013-8-18,76.5,65.0,57.9,60.6,56.0,52.5,90,73,56,30.09,30.04,14,2,17,0.00
2013-8-19,77.4,65.2,57.8,59.5,54.8,51.0,87,70,52,30.07,30.03,9,1,17,0.00
2013-8-20,73.4,64.7,58.1,56.4,52.1,49.5,80,65,46,30.13,30.03,10,2,15,0.00
2013-8-21,74.5,65.4,54.9,55.7,52.2,48.3,82,63,49,30.06,29.90,11,3,15,0.00
2013-8-22,80.2,68.1,55.9,57.6,54.4,51.9,88,64,43,29.91,29.76,6,1,10,0.00
2013-8-23,74.3,65.9,60.1,58.6,56.2,54.5,86,72,54,29.85,29.78,5,1,11,0.00
2013-8-24,73.6,64.4,60.3,57.4,55.6,52.9,85,74,52,29.88,29.82,9,1,15,0.00
2013-8-25,70.0,63.0,55.7,57.5,54.1,51.5,87,74,57,29.91,29.83,6,1,10,0.01
2013-8-26,75.0,64.3,59.4,59.1,55.8,51.9,85,75,47,29.92,29.82,9,0,12,0.03
2013-8-27,76.6,66.3,60.5,60.3,57.3,53.1,88,74,54,29.92,29.76,7,1,10,0.00
2013-8-28,78.1,67.1,58.4,64.5,59.6,55.6,96,79,56,29.86,29.79,5,0,8,0.19
2013-8-29,71.5,65.9,62.3,66.0,62.8,57.7,95,90,77,29.97,29.81,8,1,10,0.40
2013-8-30,77.5,66.9,60.9,61.5,57.2,52.9,91,73,46,30.11,29.98,8,1,12,0.00
2013-8-31,74.4,64.3,56.0,59.1,56.3,53.9,93,77,58,30.05,29.80,9,2,14,0.00
2013-9-1,81.1,66.2,57.3,61.5,57.6,54.6,94,76,48,29.86,29.75,5,0,6,0.00
2013-9-2,80.5,68.4,59.3,60.6,57.4,55.1,87,70,46,29.90,29.82,8,1,9,0.00
2013-9-3,71.9,64.1,60.3,62.7,59.8,57.5,95,86,66,29.99,29.90,6,1,7,0.03
2013-9-4,70.0,62.9,58.0,62.0,58.7,56.2,95,87,71,30.02,29.96,8,1,9,0.00
2013-9-5,66.5,61.2,59.0,60.0,58.1,56.5,96,90,78,30.01,29.89,8,1,13,0.12
2013-9-6,71.0,62.9,60.0,63.8,60.2,58.6,97,92,77,30.07,29.90,7,0,9,1.11
2013-9-7,71.3,63.7,59.7,60.9,59.1,57.0,94,86,67,30.07,29.98,8,1,9,0.00
2013-9-8,77.8,64.6,55.8,61.8,57.9,54.6,97,81,51,30.08,29.99,7,1,8,0.00
2013-9-9,73.8,62.5,56.0,61.5,57.5,54.8,97,85,62,30.04,29.94,8,2,12,0.00
2013-9-10,72.9,63.6,55.3,62.9,58.0,54.1,97,83,67,29.96,29.85,9,2,14,0.00
2013-9-11,85.0,70.2,58.6,63.7,59.3,55.7,92,71,46,29.91,29.83,6,2,9,0.00
2013-9-12,77.4,65.1,58.7,63.3,59.1,56.6,96,82,61,29.96,29.86,5,1,7,0.00
2013-9-13,65.2,61.6,58.0,60.6,58.9,55.9,97,91,84,29.93,29.84,5,0,6,0.01
2013-9-14,67.0,61.3,58.2,60.4,58.2,56.4,94,90,79,29.85,29.70,6,1,8,0.00
2013-9-15,64.1,59.3,55.4,61.2,57.6,54.5,97,95,88,29.78,29.68,4,0,9,0.20
2013-9-16,67.6,61.0,57.9,59.9,57.0,53.4,93,87,75,29.89,29.77,9,1,13,0.01
2013-9-17,62.5,58.4,55.3,54.7,53.0,51.2,91,83,71,29.90,29.83,4,0,6,0.00
2013-9-18,68.6,58.9,53.2,54.7,52.1,48.3,94,79,53,30.04,29.90,6,1,11,0.00
2013-9-19,77.3,62.3,50.4,53.4,50.4,47.2,92,69,36,30.01,29.72,5,1,7,0.00
2013-9-20,72.3,62.0,55.9,56.2,52.7,47.7,92,73,54,29.72,29.55,7,1,12,0.11
2013-9-21,68.5,59.7,54.9,56.5,54.2,52.8,94,83,62,29.69,29.61,5,1,8,0.01
2013-9-22,60.7,57.3,54.6,55.9,52.9,49.7,94,85,69,29.69,29.53,7,1,13,0.24
2013-9-23,60.8,56.0,53.6,54.8,51.9,48.0,94,86,77,29.93,29.69,8,1,13,0.20
2013-9-24,63.1,54.4,50.3,52.1,49.3,47.8,94,84,61,29.92,29.80,8,1,10,0.02
2013-9-25,59.3,52.8,49.7,50.4,48.2,46.0,94,85,64,29.99,29.82,13,3,18,0.05
2013-9-26,61.4,52.7,46.4,50.7,47.9,44.7,96,85,64,30.09,29.99,6,1,9,0.00
2013-9-27,56.6,54.2,51.4,52.4,50.3,47.0,92,87,82,30.08,29.81,7,1,12,0.07
2013-9-28,59.6,55.3,51.8,57.7,53.3,49.5,96,93,89,29.81,29.29,15,1,19,1.05
2013-9-29,57.1,53.2,51.7,51.9,49.6,47.6,94,88,77,29.51,29.12,15,2,21,0.48
2013-9-30,57.1,52.3,49.4,51.0,47.9,44.9,92,85,74,29.88,29.38,9,2,17,0.05
2013-10-1,57.4,51.6,47.7,49.2,46.6,44.3,95,84,67,30.07,29.87,5,1,11,0.14
2013-10-2,54.8,50.3,48.7,49.7,47.4,46.1,95,90,79,30.14,30.02,8,0,9,0.29
2013-10-3,58.5,51.5,47.7,48.3,46.7,44.6,94,84,66,30.42,30.14,6,1,7,0.01
2013-10-4,62.4,51.5,44.2,49.9,46.4,43.1,96,84,59,30.45,30.31,5,0,6,0.00
2013-10-5,66.3,54.5,46.2,50.3,47.5,45.0,96,79,49,30.32,30.10,6,1,8,0.00
2013-10-6,70.6,56.8,47.2,52.6,49.0,44.1,96,78,45,30.09,29.84,8,1,15,0.02
2013-10-7,60.5,54.8,51.8,51.3,49.4,46.6,92,83,62,29.97,29.85,7,2,13,0.05
2013-10-8,56.2,51.1,46.7,49.4,46.1,42.8,92,84,65,30.04,29.93,12,1,15,0.09
2013-10-9,57.4,50.0,42.8,47.3,44.6,41.4,96,82,64,30.10,29.92,6,1,7,0.00
2013-10-10,57.6,51.4,47.0,49.6,47.0,44.0,92,85,70,30.04,29.90,6,1,8,0.01
2013-10-11,54.3,51.2,49.0,49.3,48.3,47.0,95,90,80,30.11,30.03,2,0,4,0.07
2013-10-12,55.1,50.8,47.8,49.2,47.4,44.9,95,89,77,30.18,30.04,9,1,13,0.04
2013-10-13,57.2,49.8,44.6,48.2,45.4,43.0,96,86,60,30.33,30.18,8,1,11,0.00
2013-10-14,58.0,48.4,41.6,48.3,44.8,40.5,97,88,63,30.40,30.33,6,1,8,0.01
2013-10-15,57.8,49.5,45.0,49.7,46.2,43.0,97,89,71,30.36,30.14,5,0,6,0.00
2013-10-16,56.3,50.7,46.8,50.2,47.5,45.1,96,89,79,30.17,30.12,9,1,12,0.00
2013-10-17,57.2,50.9,47.8,49.8,47.4,45.8,95,88,74,30.24,30.17,5,1,7,0.00
2013-10-18,52.7,47.9,44.3,49.2,46.2,43.5,97,94,87,30.21,30.12,6,1,10,0.01
2013-10-19,48.8,47.1,45.5,47.4,45.7,44.6,97,95,93,30.16,30.11,5,1,7,0.01
2013-10-20,49.6,47.8,46.3,47.1,46.0,44.6,96,94,90,30.17,30.12,6,1,7,0.00
2013-10-21,50.8,48.2,46.5,48.5,46.6,45.4,97,94,91,30.14,30.07,6,1,8,0.00
2013-10-22,51.8,48.0,46.2,49.0,46.7,45.3,97,96,90,30.09,30.00,6,1,7,0.00
2013-10-23,55.5,47.5,44.7,50.3,46.1,43.9,98,95,82,30.02,29.95,4,1,5,0.01
2013-10-24,48.5,46.7,44.7,47.6,45.9,43.9,98,97,96,30.09,29.99,4,0,6,0.01
2013-10-25,52.6,48.9,46.9,49.1,47.2,45.5,97,94,87,30.28,30.09,4,0,7,0.01
2013-10-26,53.7,50.1,46.9,48.0,46.3,45.4,96,87,79,30.30,30.16,8,1,11,0.00
2013-10-27,55.4,50.5,46.2,48.5,45.9,43.2,96,85,72,30.16,29.86,21,3,23,0.17
2013-10-28,55.2,51.5,46.9,44.2,37.7,33.0,88,60,43,29.91,29.85,22,5,22,0.00
2013-10-29,55.7,46.5,38.6,42.7,38.8,35.0,92,75,50,30.00,29.91,6,1,7,0.00
2013-10-30,55.3,48.6,41.7,47.1,41.4,37.0,88,76,67,30.09,29.99,9,1,11,0.01
2013-10-31,55.3,51.5,49.1,50.4,47.7,43.3,92,87,75,30.22,30.06,7,0,10,0.00
2013-11-1,58.8,54.1,51.5,50.9,49.5,47.6,94,85,71,30.24,29.80,3,0,5,0.00
2013-11-2,53.7,50.0,44.5,50.3,45.0,39.1,96,83,67,29.85,29.44,22,3,28,0.38
2013-11-3,51.7,44.8,41.3,42.4,40.3,38.5,93,85,66,30.08,29.84,5,1,10,0.01
2013-11-4,48.3,43.8,39.1,41.1,38.9,36.3,95,84,64,30.16,30.02,3,1,6,0.04
2013-11-5,49.9,46.9,43.9,48.1,44.7,41.0,95,92,88,30.22,29.98,6,1,10,0.01
2013-11-6,51.7,48.0,44.4,46.6,44.7,42.5,94,88,77,30.29,30.00,3,0,5,0.07
2013-11-7,50.3,48.8,47.6,49.2,46.6,45.0,96,92,83,29.99,29.68,9,2,16,0.58
2013-11-8,53.8,49.2,46.7,46.1,44.3,43.1,89,83,73,30.12,29.93,4,1,10,0.00
2013-11-9,49.9,46.0,42.0,44.7,42.9,40.1,95,89,77,30.12,30.04,4,0,6,0.07
2013-11-10,48.8,46.8,44.9,45.6,44.2,43.2,95,91,87,30.12,30.06,10,2,14,0.04
2013-11-11,56.0,48.6,45.0,47.5,44.7,42.9,94,87,68,30.13,29.97,7,1,8,0.00
2013-11-12,57.8,52.1,47.7,52.9,48.9,43.8,95,89,76,30.32,29.99,7,1,10,0.11
2013-11-13,54.4,52.1,49.4,49.7,48.4,46.2,92,88,81,30.40,30.28,6,1,13,0.00
2013-11-14,49.3,47.2,44.1,47.1,45.3,42.7,96,93,89,30.27,30.02,5,0,7,0.02
2013-11-15,48.9,45.4,42.9,46.4,42.8,39.9,96,91,86,30.03,29.29,15,2,19,0.13
2013-11-16,48.1,44.3,41.0,43.7,39.0,37.2,94,82,70,29.74,29.31,10,2,12,0.00
2013-11-17,51.2,47.1,42.8,46.6,43.5,37.9,91,87,81,29.86,29.74,10,2,15,0.00
2013-11-18,51.5,49.3,47.6,50.3,47.5,44.5,97,94,87,29.86,29.52,9,1,13,0.53
2013-11-19,52.2,44.0,38.2,50.8,37.6,24.9,96,79,53,30.04,29.51,9,3,16,0.11
2013-11-20,41.7,37.2,32.9,31.6,28.3,26.2,81,71,58,30.48,30.04,9,2,16,0.00
2013-11-21,41.8,35.2,31.1,29.5,27.6,25.6,84,74,58,30.64,30.48,8,2,11,0.00
2013-11-22,42.9,37.0,31.3,33.1,29.9,27.0,85,76,62,30.62,30.42,10,2,12,0.00
2013-11-23,47.6,40.3,35.7,39.0,34.4,28.2,88,80,65,30.42,30.17,6,1,9,0.00
2013-11-24,47.5,41.4,36.8,41.4,37.6,33.8,92,86,75,30.22,30.13,4,1,7,0.00
2013-11-25,51.6,41.5,36.1,42.7,38.9,34.8,97,91,67,30.29,30.22,3,0,4,0.00
2013-11-26,50.1,43.4,37.3,43.2,39.4,36.2,97,87,67,30.24,30.06,5,0,8,0.01
2013-11-27,52.1,46.4,42.1,45.1,41.5,37.1,90,83,74,30.07,29.93,5,1,8,0.00
2013-11-28,44.8,41.2,37.2,43.6,39.9,36.1,97,95,90,30.14,29.99,5,1,7,0.01
2013-11-29,47.2,44.3,41.0,45.1,42.4,39.5,97,93,89,30.28,30.14,4,0,7,0.00
2013-11-30,49.8,48.1,45.2,47.0,44.7,43.0,93,88,82,30.29,30.05,7,2,15,0.04
2013-12-1,52.8,50.4,43.1,50.5,47.1,38.2,95,89,82,30.05,29.70,17,4,24,0.00
2013-12-2,43.8,39.6,36.4,38.4,34.6,30.7,94,83,66,30.03,29.78,8,2,14,0.04
2013-12-3,37.8,34.9,31.2,30.2,25.9,23.0,85,70,55,30.28,30.03,15,4,21,0.00
2013-12-4,36.3,31.3,27.2,27.9,25.5,22.2,91,80,66,30.33,30.26,5,1,7,0.00
2013-12-5,33.5,29.5,26.5,25.6,21.9,15.7,92,74,56,30.30,30.16,5,0,9,0.00
2013-12-6,31.9,27.6,23.5,15.7,11.5,8.2,60,50,40,30.21,30.11,8,1,11,0.00
2013-12-7,28.9,24.3,20.9,14.3,9.2,4.8,71,53,36,30.40,30.20,9,2,12,0.00
2013-12-8,31.6,26.4,21.2,21.1,17.2,11.4,78,68,56,30.55,30.40,3,0,5,0.00
2013-12-9,33.6,29.9,24.9,28.7,22.8,16.3,83,75,67,30.56,30.46,3,0,7,0.00
2013-12-10,38.9,35.8,32.8,34.4,31.7,27.1,89,85,79,30.47,30.39,3,0,6,0.00
2013-12-11,39.4,35.8,31.5,35.5,33.1,29.4,94,90,84,30.39,30.14,3,0,4,0.00
2013-12-12,42.2,38.8,34.3,40.5,36.1,32.4,96,90,76,30.14,30.02,4,1,9,0.09
2013-12-13,47.7,45.3,42.2,45.2,43.4,40.5,96,93,90,30.38,30.09,6,1,12,0.00
2013-12-14,48.1,46.5,44.7,44.5,43.2,42.0,92,88,85,30.40,30.29,6,1,14,0.00
2013-12-15,49.7,47.7,45.7,47.6,45.7,43.2,96,93,86,30.42,30.28,8,1,12,0.10
2013-12-16,47.7,44.5,40.5,45.4,42.7,39.6,97,94,86,30.46,30.24,4,1,8,0.00
2013-12-17,43.8,41.4,40.0,41.7,40.1,39.0,97,95,90,30.24,30.08,7,1,12,0.01
2013-12-18,44.1,41.7,37.9,41.3,36.9,31.7,95,84,64,30.13,29.99,15,2,17,0.03
2013-12-19,38.5,36.1,33.0,35.4,26.9,24.0,89,69,57,30.32,30.11,11,2,17,0.00
2013-12-20,43.0,36.7,31.8,42.2,33.8,25.7,97,90,70,30.17,29.68,13,2,17,0.14
2013-12-21,43.8,41.8,39.5,43.0,40.8,38.4,97,96,96,30.13,29.81,5,0,7,0.14
2013-12-22,48.8,46.6,43.8,47.9,45.7,43.0,98,97,94,30.26,30.12,9,1,15,0.17
2013-12-23,53.3,48.1,43.1,48.3,44.9,39.7,96,89,77,30.48,30.09,9,2,18,0.00
2013-12-24,45.8,41.4,37.8,40.7,38.4,35.9,96,89,79,30.59,30.48,4,1,6,0.00
2013-12-25,41.2,36.1,32.4,36.9,34.2,31.3,97,93,84,30.50,30.36,8,1,8,0.01
2013-12-26,40.5,37.6,35.4,38.4,36.5,34.3,97,96,92,30.38,30.17,5,0,7,0.00
2013-12-27,45.0,40.9,35.7,43.3,39.7,34.9,98,96,90,30.34,30.08,9,1,11,0.04
2013-12-28,46.0,43.1,38.1,43.5,41.7,36.9,97,95,89,30.50,30.34,4,0,7,0.00
2013-12-29,43.0,39.8,37.0,41.1,38.6,35.9,98,95,92,30.45,30.28,4,0,7,0.00
2013-12-30,43.6,41.6,39.2,41.3,39.9,38.1,97,94,89,30.29,30.09,9,1,14,0.01
2013-12-31,44.8,43.8,41.4,43.1,41.9,40.3,96,93,85,30.35,30.16,3,0,7,0.00
2014-1-1,43.7,41.6,38.8,42.7,40.2,38.0,98,95,90,30.38,30.22,5,0,5,0.01
2014-1-2,49.2,45.3,42.2,44.9,42.4,40.3,96,90,77,30.22,29.86,9,1,13,0.45